sensor_id;sensor_type;location;lat;lon;timestamp;P1;durP1;ratioP1;P2;durP2;ratioP2
151;SDS011;68;48.792;9.164;2023-04-24T00:00:53;8.95;;;4.13;;
151;SDS011;68;48.792;9.164;2023-04-24T00:03:21;8.60;;;3.70;;
151;SDS011;68;48.792;9.164;2023-04-24T00:05:48;7.15;;;3.95;;
151;SDS011;68;48.792;9.164;2023-04-24T00:08:17;7.45;;;3.70;;
151;SDS011;68;48.792;9.164;2023-04-24T00:10:44;7.38;;;4.20;;
151;SDS011;68;48.792;9.164;2023-04-24T00:13:11;8.05;;;4.32;;
151;SDS011;68;48.792;9.164;2023-04-24T00:15:37;9.23;;;3.78;;
151;SDS011;68;48.792;9.164;2023-04-24T00:18:04;7.65;;;4.05;;
151;SDS011;68;48.792;9.164;2023-04-24T00:20:31;6.97;;;3.70;;
151;SDS011;68;48.792;9.164;2023-04-24T00:22:58;6.55;;;3.25;;
151;SDS011;68;48.792;9.164;2023-04-24T00:25:26;6.13;;;4.15;;
151;SDS011;68;48.792;9.164;2023-04-24T00:27:53;7.63;;;3.90;;
151;SDS011;68;48.792;9.164;2023-04-24T00:30:19;7.82;;;3.60;;
151;SDS011;68;48.792;9.164;2023-04-24T00:32:46;6.93;;;3.38;;
151;SDS011;68;48.792;9.164;2023-04-24T00:35:13;9.27;;;4.85;;
151;SDS011;68;48.792;9.164;2023-04-24T00:37:40;9.02;;;4.20;;
151;SDS011;68;48.792;9.164;2023-04-24T00:40:07;8.05;;;3.85;;
151;SDS011;68;48.792;9.164;2023-04-24T00:42:36;7.97;;;3.42;;
151;SDS011;68;48.792;9.164;2023-04-24T00:45:03;7.05;;;3.97;;
151;SDS011;68;48.792;9.164;2023-04-24T00:47:31;9.10;;;3.70;;
151;SDS011;68;48.792;9.164;2023-04-24T00:50:00;6.78;;;3.72;;
151;SDS011;68;48.792;9.164;2023-04-24T00:52:27;7.13;;;3.47;;
151;SDS011;68;48.792;9.164;2023-04-24T00:54:56;7.45;;;4.93;;
151;SDS011;68;48.792;9.164;2023-04-24T00:57:23;7.03;;;3.42;;
151;SDS011;68;48.792;9.164;2023-04-24T00:59:52;9.10;;;3.85;;
151;SDS011;68;48.792;9.164;2023-04-24T01:02:18;8.85;;;5.32;;
151;SDS011;68;48.792;9.164;2023-04-24T01:04:47;6.55;;;3.70;;
151;SDS011;68;48.792;9.164;2023-04-24T01:07:16;7.38;;;3.70;;
151;SDS011;68;48.792;9.164;2023-04-24T01:09:44;8.02;;;3.53;;
151;SDS011;68;48.792;9.164;2023-04-24T01:12:14;6.93;;;3.72;;
151;SDS011;68;48.792;9.164;2023-04-24T01:14:41;7.60;;;3.80;;
151;SDS011;68;48.792;9.164;2023-04-24T01:17:10;7.38;;;3.70;;
151;SDS011;68;48.792;9.164;2023-04-24T01:19:37;8.25;;;4.22;;
151;SDS011;68;48.792;9.164;2023-04-24T01:22:09;6.18;;;3.50;;
151;SDS011;68;48.792;9.164;2023-04-24T01:24:37;6.18;;;3.60;;
151;SDS011;68;48.792;9.164;2023-04-24T01:27:04;9.75;;;4.55;;
151;SDS011;68;48.792;9.164;2023-04-24T01:29:31;7.50;;;3.50;;
151;SDS011;68;48.792;9.164;2023-04-24T01:31:58;7.50;;;4.05;;
151;SDS011;68;48.792;9.164;2023-04-24T01:34:25;7.13;;;3.55;;
151;SDS011;68;48.792;9.164;2023-04-24T01:36:52;8.02;;;3.75;;
151;SDS011;68;48.792;9.164;2023-04-24T01:39:20;6.20;;;3.85;;
151;SDS011;68;48.792;9.164;2023-04-24T01:41:48;8.82;;;4.10;;
151;SDS011;68;48.792;9.164;2023-04-24T01:44:15;8.15;;;4.88;;
151;SDS011;68;48.792;9.164;2023-04-24T01:46:42;6.50;;;4.22;;
151;SDS011;68;48.792;9.164;2023-04-24T01:49:09;8.65;;;3.90;;
151;SDS011;68;48.792;9.164;2023-04-24T01:51:36;7.35;;;3.70;;
151;SDS011;68;48.792;9.164;2023-04-24T01:54:03;7.25;;;3.50;;
151;SDS011;68;48.792;9.164;2023-04-24T01:56:32;7.22;;;4.10;;
151;SDS011;68;48.792;9.164;2023-04-24T01:59:00;10.38;;;4.18;;
151;SDS011;68;48.792;9.164;2023-04-24T02:01:32;6.82;;;3.78;;
151;SDS011;68;48.792;9.164;2023-04-24T02:04:01;5.80;;;3.28;;
151;SDS011;68;48.792;9.164;2023-04-24T02:06:28;12.82;;;4.70;;
151;SDS011;68;48.792;9.164;2023-04-24T02:08:56;8.20;;;3.80;;
151;SDS011;68;48.792;9.164;2023-04-24T02:11:23;6.90;;;3.60;;
151;SDS011;68;48.792;9.164;2023-04-24T02:13:51;10.00;;;4.35;;
151;SDS011;68;48.792;9.164;2023-04-24T02:16:18;9.50;;;3.40;;
151;SDS011;68;48.792;9.164;2023-04-24T02:18:45;7.07;;;4.05;;
151;SDS011;68;48.792;9.164;2023-04-24T02:21:12;6.78;;;3.70;;
151;SDS011;68;48.792;9.164;2023-04-24T02:23:38;6.07;;;3.35;;
151;SDS011;68;48.792;9.164;2023-04-24T02:26:05;8.02;;;3.88;;
151;SDS011;68;48.792;9.164;2023-04-24T02:28:32;6.63;;;4.35;;
151;SDS011;68;48.792;9.164;2023-04-24T02:31:00;6.22;;;3.63;;
151;SDS011;68;48.792;9.164;2023-04-24T02:33:27;7.53;;;3.80;;
151;SDS011;68;48.792;9.164;2023-04-24T02:35:54;7.70;;;4.13;;
151;SDS011;68;48.792;9.164;2023-04-24T02:38:21;7.88;;;3.55;;
151;SDS011;68;48.792;9.164;2023-04-24T02:40:48;6.85;;;3.90;;
151;SDS011;68;48.792;9.164;2023-04-24T02:43:15;9.15;;;3.53;;
151;SDS011;68;48.792;9.164;2023-04-24T02:45:41;7.75;;;3.97;;
151;SDS011;68;48.792;9.164;2023-04-24T02:48:09;8.13;;;4.57;;
151;SDS011;68;48.792;9.164;2023-04-24T02:50:36;7.75;;;4.13;;
151;SDS011;68;48.792;9.164;2023-04-24T02:53:03;6.25;;;3.97;;
151;SDS011;68;48.792;9.164;2023-04-24T02:55:30;9.27;;;3.90;;
151;SDS011;68;48.792;9.164;2023-04-24T02:57:56;7.75;;;4.18;;
151;SDS011;68;48.792;9.164;2023-04-24T03:00:23;8.57;;;3.95;;
151;SDS011;68;48.792;9.164;2023-04-24T03:02:50;10.77;;;5.38;;
151;SDS011;68;48.792;9.164;2023-04-24T03:05:18;8.38;;;4.22;;
151;SDS011;68;48.792;9.164;2023-04-24T03:07:45;6.55;;;4.18;;
151;SDS011;68;48.792;9.164;2023-04-24T03:10:11;8.25;;;4.80;;
151;SDS011;68;48.792;9.164;2023-04-24T03:12:38;7.78;;;4.90;;
151;SDS011;68;48.792;9.164;2023-04-24T03:15:05;7.90;;;5.20;;
151;SDS011;68;48.792;9.164;2023-04-24T03:17:33;10.45;;;5.00;;
151;SDS011;68;48.792;9.164;2023-04-24T03:20:00;8.18;;;5.18;;
151;SDS011;68;48.792;9.164;2023-04-24T03:22:28;8.80;;;4.40;;
151;SDS011;68;48.792;9.164;2023-04-24T03:24:57;9.00;;;4.75;;
151;SDS011;68;48.792;9.164;2023-04-24T03:27:24;7.20;;;4.00;;
151;SDS011;68;48.792;9.164;2023-04-24T03:29:50;10.27;;;4.85;;
151;SDS011;68;48.792;9.164;2023-04-24T03:32:20;9.10;;;4.72;;
151;SDS011;68;48.792;9.164;2023-04-24T03:34:46;12.02;;;5.07;;
151;SDS011;68;48.792;9.164;2023-04-24T03:37:13;8.20;;;4.55;;
151;SDS011;68;48.792;9.164;2023-04-24T03:39:41;7.80;;;4.63;;
151;SDS011;68;48.792;9.164;2023-04-24T03:42:08;9.95;;;3.50;;
151;SDS011;68;48.792;9.164;2023-04-24T03:44:35;9.00;;;5.32;;
151;SDS011;68;48.792;9.164;2023-04-24T03:47:02;6.55;;;4.68;;
151;SDS011;68;48.792;9.164;2023-04-24T03:49:28;7.10;;;4.38;;
151;SDS011;68;48.792;9.164;2023-04-24T03:51:55;11.52;;;4.35;;
151;SDS011;68;48.792;9.164;2023-04-24T03:54:22;7.32;;;3.75;;
151;SDS011;68;48.792;9.164;2023-04-24T03:56:50;8.80;;;5.05;;
151;SDS011;68;48.792;9.164;2023-04-24T03:59:17;8.85;;;4.80;;
151;SDS011;68;48.792;9.164;2023-04-24T04:01:43;7.55;;;5.20;;
151;SDS011;68;48.792;9.164;2023-04-24T04:04:10;8.68;;;5.05;;
151;SDS011;68;48.792;9.164;2023-04-24T04:06:37;12.07;;;5.30;;
151;SDS011;68;48.792;9.164;2023-04-24T04:09:04;8.30;;;4.50;;
151;SDS011;68;48.792;9.164;2023-04-24T04:11:32;8.43;;;4.35;;
151;SDS011;68;48.792;9.164;2023-04-24T04:14:00;9.38;;;5.80;;
151;SDS011;68;48.792;9.164;2023-04-24T04:16:27;8.18;;;4.47;;
151;SDS011;68;48.792;9.164;2023-04-24T04:18:53;9.07;;;4.80;;
151;SDS011;68;48.792;9.164;2023-04-24T04:21:20;8.50;;;4.43;;
151;SDS011;68;48.792;9.164;2023-04-24T04:23:47;7.80;;;5.65;;
151;SDS011;68;48.792;9.164;2023-04-24T04:26:14;9.55;;;5.40;;
151;SDS011;68;48.792;9.164;2023-04-24T04:28:41;7.80;;;4.90;;
151;SDS011;68;48.792;9.164;2023-04-24T04:31:11;8.55;;;5.28;;
151;SDS011;68;48.792;9.164;2023-04-24T04:33:37;7.15;;;5.07;;
151;SDS011;68;48.792;9.164;2023-04-24T04:36:04;11.15;;;5.97;;
151;SDS011;68;48.792;9.164;2023-04-24T04:38:31;8.35;;;5.13;;
151;SDS011;68;48.792;9.164;2023-04-24T04:40:58;10.80;;;4.40;;
151;SDS011;68;48.792;9.164;2023-04-24T04:43:25;7.72;;;4.57;;
151;SDS011;68;48.792;9.164;2023-04-24T04:45:52;7.80;;;4.90;;
151;SDS011;68;48.792;9.164;2023-04-24T04:48:21;9.85;;;5.88;;
151;SDS011;68;48.792;9.164;2023-04-24T04:50:47;9.25;;;4.90;;
151;SDS011;68;48.792;9.164;2023-04-24T04:53:14;7.97;;;4.88;;
151;SDS011;68;48.792;9.164;2023-04-24T04:55:41;7.40;;;4.45;;
151;SDS011;68;48.792;9.164;2023-04-24T04:58:08;10.07;;;5.22;;
151;SDS011;68;48.792;9.164;2023-04-24T05:00:34;7.43;;;5.05;;
151;SDS011;68;48.792;9.164;2023-04-24T05:03:02;7.05;;;4.63;;
151;SDS011;68;48.792;9.164;2023-04-24T05:05:31;8.65;;;6.13;;
151;SDS011;68;48.792;9.164;2023-04-24T05:07:58;6.72;;;4.32;;
151;SDS011;68;48.792;9.164;2023-04-24T05:10:25;8.43;;;5.65;;
151;SDS011;68;48.792;9.164;2023-04-24T05:12:51;8.63;;;5.70;;
151;SDS011;68;48.792;9.164;2023-04-24T05:15:18;12.85;;;4.80;;
151;SDS011;68;48.792;9.164;2023-04-24T05:17:45;12.63;;;4.90;;
151;SDS011;68;48.792;9.164;2023-04-24T05:20:11;7.28;;;4.32;;
151;SDS011;68;48.792;9.164;2023-04-24T05:22:41;7.95;;;5.00;;
151;SDS011;68;48.792;9.164;2023-04-24T05:25:08;9.20;;;5.55;;
151;SDS011;68;48.792;9.164;2023-04-24T05:27:35;10.68;;;7.63;;
151;SDS011;68;48.792;9.164;2023-04-24T05:30:02;9.73;;;4.70;;
151;SDS011;68;48.792;9.164;2023-04-24T05:32:29;8.88;;;5.95;;
151;SDS011;68;48.792;9.164;2023-04-24T05:34:56;8.45;;;5.22;;
151;SDS011;68;48.792;9.164;2023-04-24T05:37:23;9.10;;;5.22;;
151;SDS011;68;48.792;9.164;2023-04-24T05:39:51;7.82;;;5.10;;
151;SDS011;68;48.792;9.164;2023-04-24T05:42:18;9.65;;;6.00;;
151;SDS011;68;48.792;9.164;2023-04-24T05:44:44;7.78;;;4.85;;
151;SDS011;68;48.792;9.164;2023-04-24T05:47:11;17.05;;;5.60;;
151;SDS011;68;48.792;9.164;2023-04-24T05:49:38;7.97;;;4.53;;
151;SDS011;68;48.792;9.164;2023-04-24T05:52:05;9.10;;;5.40;;
151;SDS011;68;48.792;9.164;2023-04-24T05:54:33;7.88;;;5.80;;
151;SDS011;68;48.792;9.164;2023-04-24T05:57:01;8.15;;;5.05;;
151;SDS011;68;48.792;9.164;2023-04-24T05:59:32;7.25;;;5.00;;
151;SDS011;68;48.792;9.164;2023-04-24T06:01:59;10.30;;;5.63;;
151;SDS011;68;48.792;9.164;2023-04-24T06:04:26;8.50;;;5.60;;
151;SDS011;68;48.792;9.164;2023-04-24T06:06:52;8.13;;;5.57;;
151;SDS011;68;48.792;9.164;2023-04-24T06:09:21;8.18;;;6.03;;
151;SDS011;68;48.792;9.164;2023-04-24T06:11:48;7.85;;;5.55;;
151;SDS011;68;48.792;9.164;2023-04-24T06:14:18;12.07;;;6.05;;
151;SDS011;68;48.792;9.164;2023-04-24T06:16:46;7.90;;;5.53;;
151;SDS011;68;48.792;9.164;2023-04-24T06:19:12;8.07;;;5.80;;
151;SDS011;68;48.792;9.164;2023-04-24T06:21:39;13.45;;;5.50;;
151;SDS011;68;48.792;9.164;2023-04-24T06:24:06;10.50;;;5.32;;
151;SDS011;68;48.792;9.164;2023-04-24T06:26:33;10.63;;;5.90;;
151;SDS011;68;48.792;9.164;2023-04-24T06:28:59;9.65;;;5.95;;
151;SDS011;68;48.792;9.164;2023-04-24T06:31:28;9.20;;;6.25;;
151;SDS011;68;48.792;9.164;2023-04-24T06:33:54;15.10;;;9.82;;
151;SDS011;68;48.792;9.164;2023-04-24T06:36:21;10.40;;;6.10;;
151;SDS011;68;48.792;9.164;2023-04-24T06:38:48;8.00;;;5.82;;
151;SDS011;68;48.792;9.164;2023-04-24T06:41:15;14.93;;;5.40;;
151;SDS011;68;48.792;9.164;2023-04-24T06:43:42;12.82;;;6.70;;
151;SDS011;68;48.792;9.164;2023-04-24T06:46:08;8.75;;;5.13;;
151;SDS011;68;48.792;9.164;2023-04-24T06:48:36;10.68;;;5.13;;
151;SDS011;68;48.792;9.164;2023-04-24T06:51:03;8.88;;;5.18;;
151;SDS011;68;48.792;9.164;2023-04-24T06:53:30;8.05;;;4.32;;
151;SDS011;68;48.792;9.164;2023-04-24T06:55:58;9.23;;;5.45;;
151;SDS011;68;48.792;9.164;2023-04-24T06:58:25;9.35;;;5.15;;
151;SDS011;68;48.792;9.164;2023-04-24T07:00:52;8.63;;;4.90;;
151;SDS011;68;48.792;9.164;2023-04-24T07:03:18;10.95;;;5.78;;
151;SDS011;68;48.792;9.164;2023-04-24T07:05:47;10.18;;;4.80;;
151;SDS011;68;48.792;9.164;2023-04-24T07:08:14;8.77;;;4.63;;
151;SDS011;68;48.792;9.164;2023-04-24T07:10:42;9.75;;;4.90;;
151;SDS011;68;48.792;9.164;2023-04-24T07:13:09;10.02;;;5.15;;
151;SDS011;68;48.792;9.164;2023-04-24T07:15:36;10.52;;;5.32;;
151;SDS011;68;48.792;9.164;2023-04-24T07:18:03;8.02;;;5.20;;
151;SDS011;68;48.792;9.164;2023-04-24T07:20:30;9.80;;;6.10;;
151;SDS011;68;48.792;9.164;2023-04-24T07:22:59;12.07;;;4.80;;
151;SDS011;68;48.792;9.164;2023-04-24T07:25:26;10.25;;;5.45;;
151;SDS011;68;48.792;9.164;2023-04-24T07:27:53;12.40;;;5.32;;
151;SDS011;68;48.792;9.164;2023-04-24T07:30:19;8.52;;;4.80;;
151;SDS011;68;48.792;9.164;2023-04-24T07:32:46;10.90;;;4.30;;
151;SDS011;68;48.792;9.164;2023-04-24T07:35:13;9.05;;;4.63;;
151;SDS011;68;48.792;9.164;2023-04-24T07:37:40;8.82;;;4.50;;
151;SDS011;68;48.792;9.164;2023-04-24T07:40:12;10.40;;;4.72;;
151;SDS011;68;48.792;9.164;2023-04-24T07:42:38;12.55;;;4.80;;
151;SDS011;68;48.792;9.164;2023-04-24T07:45:06;9.07;;;4.50;;
151;SDS011;68;48.792;9.164;2023-04-24T07:47:33;8.75;;;4.40;;
151;SDS011;68;48.792;9.164;2023-04-24T07:50:01;8.52;;;3.90;;
151;SDS011;68;48.792;9.164;2023-04-24T07:52:28;8.90;;;4.10;;
151;SDS011;68;48.792;9.164;2023-04-24T07:54:55;10.82;;;4.45;;
151;SDS011;68;48.792;9.164;2023-04-24T07:57:26;10.13;;;4.60;;
151;SDS011;68;48.792;9.164;2023-04-24T07:59:53;10.57;;;4.53;;
151;SDS011;68;48.792;9.164;2023-04-24T08:02:20;12.13;;;4.10;;
151;SDS011;68;48.792;9.164;2023-04-24T08:04:51;11.45;;;4.55;;
151;SDS011;68;48.792;9.164;2023-04-24T08:07:18;9.30;;;4.80;;
151;SDS011;68;48.792;9.164;2023-04-24T08:09:44;8.88;;;4.55;;
151;SDS011;68;48.792;9.164;2023-04-24T08:12:11;8.07;;;4.20;;
151;SDS011;68;48.792;9.164;2023-04-24T08:14:39;8.07;;;4.28;;
151;SDS011;68;48.792;9.164;2023-04-24T08:17:06;7.72;;;3.80;;
151;SDS011;68;48.792;9.164;2023-04-24T08:19:33;9.68;;;4.97;;
151;SDS011;68;48.792;9.164;2023-04-24T08:21:59;9.73;;;4.90;;
151;SDS011;68;48.792;9.164;2023-04-24T08:24:26;8.00;;;4.55;;
151;SDS011;68;48.792;9.164;2023-04-24T08:26:53;8.07;;;4.18;;
151;SDS011;68;48.792;9.164;2023-04-24T08:29:21;9.15;;;4.20;;
151;SDS011;68;48.792;9.164;2023-04-24T08:31:49;8.38;;;4.35;;
151;SDS011;68;48.792;9.164;2023-04-24T08:34:16;8.20;;;4.55;;
151;SDS011;68;48.792;9.164;2023-04-24T08:36:43;8.95;;;4.60;;
151;SDS011;68;48.792;9.164;2023-04-24T08:39:10;9.90;;;5.15;;
151;SDS011;68;48.792;9.164;2023-04-24T08:41:37;10.25;;;4.00;;
151;SDS011;68;48.792;9.164;2023-04-24T08:44:04;9.05;;;4.25;;
151;SDS011;68;48.792;9.164;2023-04-24T08:46:31;8.23;;;4.10;;
151;SDS011;68;48.792;9.164;2023-04-24T08:49:00;9.82;;;4.47;;
151;SDS011;68;48.792;9.164;2023-04-24T08:51:28;8.82;;;3.78;;
151;SDS011;68;48.792;9.164;2023-04-24T08:53:57;11.52;;;4.70;;
151;SDS011;68;48.792;9.164;2023-04-24T08:56:23;7.65;;;4.10;;
151;SDS011;68;48.792;9.164;2023-04-24T08:58:51;6.60;;;4.05;;
151;SDS011;68;48.792;9.164;2023-04-24T09:01:19;7.82;;;4.00;;
151;SDS011;68;48.792;9.164;2023-04-24T09:03:47;8.60;;;4.30;;
151;SDS011;68;48.792;9.164;2023-04-24T09:06:17;9.50;;;4.60;;
151;SDS011;68;48.792;9.164;2023-04-24T09:08:45;8.95;;;4.20;;
151;SDS011;68;48.792;9.164;2023-04-24T09:11:13;8.18;;;4.50;;
151;SDS011;68;48.792;9.164;2023-04-24T09:13:40;9.20;;;4.15;;
151;SDS011;68;48.792;9.164;2023-04-24T09:16:07;12.00;;;4.97;;
151;SDS011;68;48.792;9.164;2023-04-24T09:18:34;8.05;;;4.13;;
151;SDS011;68;48.792;9.164;2023-04-24T09:21:01;10.25;;;4.70;;
151;SDS011;68;48.792;9.164;2023-04-24T09:23:31;10.23;;;3.70;;
151;SDS011;68;48.792;9.164;2023-04-24T09:25:59;11.80;;;5.78;;
151;SDS011;68;48.792;9.164;2023-04-24T09:28:28;12.57;;;5.90;;
151;SDS011;68;48.792;9.164;2023-04-24T09:31:03;9.48;;;4.95;;
151;SDS011;68;48.792;9.164;2023-04-24T09:33:31;9.88;;;4.63;;
151;SDS011;68;48.792;9.164;2023-04-24T09:35:58;9.98;;;5.60;;
151;SDS011;68;48.792;9.164;2023-04-24T09:38:33;10.50;;;4.95;;
151;SDS011;68;48.792;9.164;2023-04-24T09:41:01;8.95;;;4.40;;
151;SDS011;68;48.792;9.164;2023-04-24T09:43:29;9.48;;;4.68;;
151;SDS011;68;48.792;9.164;2023-04-24T09:45:56;9.70;;;4.53;;
151;SDS011;68;48.792;9.164;2023-04-24T09:48:30;10.73;;;6.43;;
151;SDS011;68;48.792;9.164;2023-04-24T09:50:58;11.80;;;4.40;;
151;SDS011;68;48.792;9.164;2023-04-24T09:53:27;8.25;;;4.00;;
151;SDS011;68;48.792;9.164;2023-04-24T09:55:55;9.00;;;6.10;;
151;SDS011;68;48.792;9.164;2023-04-24T09:58:25;10.35;;;4.00;;
151;SDS011;68;48.792;9.164;2023-04-24T10:00:55;7.90;;;3.95;;
151;SDS011;68;48.792;9.164;2023-04-24T10:03:23;8.02;;;4.20;;
151;SDS011;68;48.792;9.164;2023-04-24T10:05:52;8.57;;;4.18;;
151;SDS011;68;48.792;9.164;2023-04-24T10:08:19;7.57;;;4.00;;
151;SDS011;68;48.792;9.164;2023-04-24T10:10:46;8.15;;;3.90;;
151;SDS011;68;48.792;9.164;2023-04-24T10:13:14;9.15;;;3.83;;
151;SDS011;68;48.792;9.164;2023-04-24T10:15:41;8.88;;;3.80;;
151;SDS011;68;48.792;9.164;2023-04-24T10:18:09;7.28;;;3.75;;
151;SDS011;68;48.792;9.164;2023-04-24T10:20:36;10.05;;;4.05;;
151;SDS011;68;48.792;9.164;2023-04-24T10:23:05;10.85;;;3.67;;
151;SDS011;68;48.792;9.164;2023-04-24T10:25:32;9.23;;;3.90;;
151;SDS011;68;48.792;9.164;2023-04-24T10:28:00;9.18;;;3.92;;
151;SDS011;68;48.792;9.164;2023-04-24T10:30:29;7.57;;;3.75;;
151;SDS011;68;48.792;9.164;2023-04-24T10:33:00;9.85;;;3.88;;
151;SDS011;68;48.792;9.164;2023-04-24T10:35:26;9.13;;;3.40;;
151;SDS011;68;48.792;9.164;2023-04-24T10:37:58;10.65;;;3.70;;
151;SDS011;68;48.792;9.164;2023-04-24T10:40:30;8.65;;;3.75;;
151;SDS011;68;48.792;9.164;2023-04-24T10:42:58;8.13;;;3.80;;
151;SDS011;68;48.792;9.164;2023-04-24T10:45:25;10.15;;;3.58;;
151;SDS011;68;48.792;9.164;2023-04-24T10:47:54;9.13;;;3.90;;
151;SDS011;68;48.792;9.164;2023-04-24T10:50:25;7.85;;;3.88;;
151;SDS011;68;48.792;9.164;2023-04-24T10:52:52;9.43;;;4.13;;
151;SDS011;68;48.792;9.164;2023-04-24T10:55:41;7.93;;;4.05;;
151;SDS011;68;48.792;9.164;2023-04-24T10:58:10;10.27;;;3.70;;
151;SDS011;68;48.792;9.164;2023-04-24T11:00:37;8.95;;;4.65;;
151;SDS011;68;48.792;9.164;2023-04-24T11:03:06;8.15;;;4.10;;
151;SDS011;68;48.792;9.164;2023-04-24T11:05:52;9.80;;;4.15;;
151;SDS011;68;48.792;9.164;2023-04-24T11:08:26;8.52;;;4.10;;
151;SDS011;68;48.792;9.164;2023-04-24T11:10:55;10.95;;;3.80;;
151;SDS011;68;48.792;9.164;2023-04-24T11:13:24;9.18;;;4.13;;
151;SDS011;68;48.792;9.164;2023-04-24T11:18:49;8.13;;;3.83;;
151;SDS011;68;48.792;9.164;2023-04-24T11:21:19;7.35;;;3.47;;
151;SDS011;68;48.792;9.164;2023-04-24T11:23:46;13.48;;;3.85;;
151;SDS011;68;48.792;9.164;2023-04-24T11:26:16;8.23;;;3.75;;
151;SDS011;68;48.792;9.164;2023-04-24T11:28:44;8.10;;;3.38;;
151;SDS011;68;48.792;9.164;2023-04-24T11:34:06;7.57;;;3.33;;
151;SDS011;68;48.792;9.164;2023-04-24T11:36:34;8.87;;;3.90;;
151;SDS011;68;48.792;9.164;2023-04-24T11:39:02;11.32;;;3.50;;
151;SDS011;68;48.792;9.164;2023-04-24T11:41:29;8.23;;;3.72;;
151;SDS011;68;48.792;9.164;2023-04-24T11:43:56;7.90;;;3.50;;
151;SDS011;68;48.792;9.164;2023-04-24T11:46:26;10.73;;;3.70;;
151;SDS011;68;48.792;9.164;2023-04-24T11:48:54;9.70;;;4.10;;
151;SDS011;68;48.792;9.164;2023-04-24T11:51:23;10.45;;;4.07;;
151;SDS011;68;48.792;9.164;2023-04-24T11:53:50;8.75;;;3.92;;
151;SDS011;68;48.792;9.164;2023-04-24T11:56:17;8.75;;;4.50;;
151;SDS011;68;48.792;9.164;2023-04-24T11:58:45;6.70;;;3.78;;
151;SDS011;68;48.792;9.164;2023-04-24T12:01:12;7.38;;;4.05;;
151;SDS011;68;48.792;9.164;2023-04-24T12:03:38;7.70;;;3.63;;
151;SDS011;68;48.792;9.164;2023-04-24T12:06:08;7.60;;;3.72;;
151;SDS011;68;48.792;9.164;2023-04-24T12:08:37;7.47;;;3.75;;
151;SDS011;68;48.792;9.164;2023-04-24T12:11:05;8.35;;;4.07;;
151;SDS011;68;48.792;9.164;2023-04-24T12:13:33;10.95;;;4.40;;
151;SDS011;68;48.792;9.164;2023-04-24T12:16:01;7.07;;;3.90;;
151;SDS011;68;48.792;9.164;2023-04-24T12:18:32;9.27;;;4.03;;
151;SDS011;68;48.792;9.164;2023-04-24T12:23:43;10.20;;;4.13;;
151;SDS011;68;48.792;9.164;2023-04-24T12:26:10;7.50;;;4.10;;
151;SDS011;68;48.792;9.164;2023-04-24T12:28:38;7.88;;;3.80;;
151;SDS011;68;48.792;9.164;2023-04-24T12:31:06;7.20;;;3.58;;
151;SDS011;68;48.792;9.164;2023-04-24T12:33:36;6.80;;;3.40;;
151;SDS011;68;48.792;9.164;2023-04-24T12:36:03;6.97;;;3.65;;
151;SDS011;68;48.792;9.164;2023-04-24T12:38:31;8.10;;;4.00;;
151;SDS011;68;48.792;9.164;2023-04-24T12:41:07;17.08;;;4.00;;
151;SDS011;68;48.792;9.164;2023-04-24T12:43:34;8.13;;;3.60;;
151;SDS011;68;48.792;9.164;2023-04-24T12:46:01;9.60;;;3.42;;
151;SDS011;68;48.792;9.164;2023-04-24T12:48:28;7.53;;;3.90;;
151;SDS011;68;48.792;9.164;2023-04-24T12:50:56;8.10;;;3.88;;
151;SDS011;68;48.792;9.164;2023-04-24T12:53:26;9.63;;;3.70;;
151;SDS011;68;48.792;9.164;2023-04-24T12:55:54;8.45;;;3.50;;
151;SDS011;68;48.792;9.164;2023-04-24T12:58:22;8.40;;;4.47;;
151;SDS011;68;48.792;9.164;2023-04-24T13:00:49;8.27;;;4.50;;
151;SDS011;68;48.792;9.164;2023-04-24T13:03:16;11.27;;;3.70;;
151;SDS011;68;48.792;9.164;2023-04-24T13:05:43;8.32;;;3.75;;
151;SDS011;68;48.792;9.164;2023-04-24T13:08:10;8.65;;;4.00;;
151;SDS011;68;48.792;9.164;2023-04-24T13:10:37;8.60;;;4.55;;
151;SDS011;68;48.792;9.164;2023-04-24T13:13:05;10.55;;;4.63;;
151;SDS011;68;48.792;9.164;2023-04-24T13:15:33;7.75;;;4.40;;
151;SDS011;68;48.792;9.164;2023-04-24T13:18:00;8.50;;;4.72;;
151;SDS011;68;48.792;9.164;2023-04-24T13:20:27;9.10;;;4.43;;
151;SDS011;68;48.792;9.164;2023-04-24T13:22:55;8.07;;;4.55;;
151;SDS011;68;48.792;9.164;2023-04-24T13:25:22;8.18;;;4.45;;
151;SDS011;68;48.792;9.164;2023-04-24T13:27:49;8.23;;;4.03;;
151;SDS011;68;48.792;9.164;2023-04-24T13:30:16;8.25;;;4.00;;
151;SDS011;68;48.792;9.164;2023-04-24T13:32:44;8.98;;;4.40;;
151;SDS011;68;48.792;9.164;2023-04-24T13:35:11;11.48;;;5.03;;
151;SDS011;68;48.792;9.164;2023-04-24T13:37:38;9.05;;;4.40;;
151;SDS011;68;48.792;9.164;2023-04-24T13:40:05;8.40;;;5.05;;
151;SDS011;68;48.792;9.164;2023-04-24T13:42:33;9.00;;;4.20;;
151;SDS011;68;48.792;9.164;2023-04-24T13:45:00;8.82;;;4.80;;
151;SDS011;68;48.792;9.164;2023-04-24T13:47:26;8.32;;;4.40;;
151;SDS011;68;48.792;9.164;2023-04-24T13:49:54;10.45;;;5.88;;
151;SDS011;68;48.792;9.164;2023-04-24T13:52:21;9.27;;;4.82;;
151;SDS011;68;48.792;9.164;2023-04-24T13:54:48;9.48;;;5.30;;
151;SDS011;68;48.792;9.164;2023-04-24T13:57:15;9.57;;;4.80;;
151;SDS011;68;48.792;9.164;2023-04-24T13:59:42;8.95;;;5.45;;
151;SDS011;68;48.792;9.164;2023-04-24T14:02:10;12.15;;;5.72;;
151;SDS011;68;48.792;9.164;2023-04-24T14:04:36;8.70;;;5.00;;
151;SDS011;68;48.792;9.164;2023-04-24T14:07:04;9.55;;;5.25;;
151;SDS011;68;48.792;9.164;2023-04-24T14:09:33;12.30;;;5.20;;
151;SDS011;68;48.792;9.164;2023-04-24T14:11:59;7.93;;;4.53;;
151;SDS011;68;48.792;9.164;2023-04-24T14:14:27;7.82;;;4.45;;
151;SDS011;68;48.792;9.164;2023-04-24T14:16:54;10.15;;;5.28;;
151;SDS011;68;48.792;9.164;2023-04-24T14:19:21;8.25;;;5.13;;
151;SDS011;68;48.792;9.164;2023-04-24T14:21:48;8.52;;;5.45;;
151;SDS011;68;48.792;9.164;2023-04-24T14:24:17;9.73;;;6.07;;
151;SDS011;68;48.792;9.164;2023-04-24T14:26:45;8.38;;;4.88;;
151;SDS011;68;48.792;9.164;2023-04-24T14:29:11;8.52;;;4.35;;
151;SDS011;68;48.792;9.164;2023-04-24T14:31:38;8.18;;;4.32;;
151;SDS011;68;48.792;9.164;2023-04-24T14:34:05;7.95;;;4.25;;
151;SDS011;68;48.792;9.164;2023-04-24T14:36:32;8.25;;;4.30;;
151;SDS011;68;48.792;9.164;2023-04-24T14:38:59;11.85;;;4.18;;
151;SDS011;68;48.792;9.164;2023-04-24T14:41:29;7.18;;;3.60;;
151;SDS011;68;48.792;9.164;2023-04-24T14:43:56;7.72;;;3.90;;
151;SDS011;68;48.792;9.164;2023-04-24T14:46:23;8.65;;;4.63;;
151;SDS011;68;48.792;9.164;2023-04-24T14:48:50;8.45;;;4.00;;
151;SDS011;68;48.792;9.164;2023-04-24T14:51:16;8.60;;;4.40;;
151;SDS011;68;48.792;9.164;2023-04-24T14:53:43;7.90;;;4.30;;
151;SDS011;68;48.792;9.164;2023-04-24T14:56:11;7.65;;;4.35;;
151;SDS011;68;48.792;9.164;2023-04-24T14:58:42;8.82;;;3.97;;
151;SDS011;68;48.792;9.164;2023-04-24T15:01:08;11.80;;;4.75;;
151;SDS011;68;48.792;9.164;2023-04-24T15:03:36;8.55;;;4.10;;
151;SDS011;68;48.792;9.164;2023-04-24T15:06:03;9.13;;;4.60;;
151;SDS011;68;48.792;9.164;2023-04-24T15:08:30;7.40;;;4.10;;
151;SDS011;68;48.792;9.164;2023-04-24T15:10:57;10.57;;;5.22;;
151;SDS011;68;48.792;9.164;2023-04-24T15:13:24;9.65;;;5.53;;
151;SDS011;68;48.792;9.164;2023-04-24T15:15:52;10.00;;;5.55;;
151;SDS011;68;48.792;9.164;2023-04-24T15:18:19;10.25;;;5.30;;
151;SDS011;68;48.792;9.164;2023-04-24T15:20:46;9.52;;;4.93;;
151;SDS011;68;48.792;9.164;2023-04-24T15:23:12;13.70;;;4.85;;
151;SDS011;68;48.792;9.164;2023-04-24T15:25:39;7.95;;;4.57;;
151;SDS011;68;48.792;9.164;2023-04-24T15:28:06;10.07;;;4.63;;
151;SDS011;68;48.792;9.164;2023-04-24T15:30:33;9.93;;;4.35;;
151;SDS011;68;48.792;9.164;2023-04-24T15:33:01;7.65;;;4.35;;
151;SDS011;68;48.792;9.164;2023-04-24T15:35:28;10.82;;;6.00;;
151;SDS011;68;48.792;9.164;2023-04-24T15:37:54;12.15;;;6.22;;
151;SDS011;68;48.792;9.164;2023-04-24T15:40:21;10.82;;;5.65;;
151;SDS011;68;48.792;9.164;2023-04-24T15:42:48;9.70;;;6.38;;
151;SDS011;68;48.792;9.164;2023-04-24T15:45:15;10.18;;;6.80;;
151;SDS011;68;48.792;9.164;2023-04-24T15:47:43;9.90;;;6.00;;
151;SDS011;68;48.792;9.164;2023-04-24T15:50:12;9.88;;;6.07;;
151;SDS011;68;48.792;9.164;2023-04-24T15:52:40;9.40;;;5.88;;
151;SDS011;68;48.792;9.164;2023-04-24T15:55:07;9.65;;;6.00;;
151;SDS011;68;48.792;9.164;2023-04-24T15:57:35;8.60;;;5.13;;
151;SDS011;68;48.792;9.164;2023-04-24T16:00:02;8.43;;;5.13;;
151;SDS011;68;48.792;9.164;2023-04-24T16:02:31;10.52;;;5.70;;
151;SDS011;68;48.792;9.164;2023-04-24T16:04:58;9.57;;;5.30;;
151;SDS011;68;48.792;9.164;2023-04-24T16:07:26;9.30;;;5.25;;